createdAt,value
2017-01-20T00:00:16.488Z,1019.83
2017-01-20T00:01:09.587Z,1019.97
2017-01-20T00:02:02.554Z,1020.00
2017-01-20T00:02:24.351Z,1020.00
2017-01-20T00:02:46.078Z,1019.91
2017-01-20T00:03:07.796Z,1019.87
2017-01-20T00:03:34.399Z,1019.96
2017-01-20T00:03:56.039Z,1019.94
2017-01-20T00:04:17.751Z,1020.03
2017-01-20T00:04:44.233Z,1020.06
2017-01-20T00:05:06.034Z,1019.99
2017-01-20T00:05:27.741Z,1019.93
2017-01-20T00:05:50.663Z,1020.08
2017-01-20T00:06:13.588Z,1019.98
2017-01-20T00:06:40.068Z,1020.03
2017-01-20T00:07:01.865Z,1020.01
2017-01-20T00:07:28.342Z,1020.01
2017-01-20T00:07:50.054Z,1020.07
2017-01-20T00:08:16.552Z,1020.02
2017-01-20T00:08:38.341Z,1020.13
2017-01-20T00:09:04.832Z,1019.99
2017-01-20T00:09:26.540Z,1020.05
2017-01-20T00:10:14.761Z,1020.12
2017-01-20T00:10:36.501Z,1020.10
2017-01-20T00:10:58.292Z,1020.08
2017-01-20T00:11:19.997Z,1020.20
2017-01-20T00:11:41.727Z,1020.06
2017-01-20T00:12:08.206Z,1020.12
2017-01-20T00:12:30.006Z,1020.12
2017-01-20T00:12:51.716Z,1020.13
2017-01-20T00:13:54.991Z,1020.08
2017-01-20T00:14:16.702Z,1020.07
2017-01-20T00:15:24.017Z,1020.05
2017-01-20T00:15:46.773Z,1020.09
2017-01-20T00:16:39.825Z,1020.03
2017-01-20T00:17:01.571Z,1020.04
2017-01-20T00:17:54.626Z,1020.04
2017-01-20T00:18:53.040Z,1020.13
2017-01-20T00:19:14.757Z,1020.08
2017-01-20T00:20:07.814Z,1020.01
2017-01-20T00:20:29.535Z,1020.09
2017-01-20T00:22:03.390Z,1019.99
2017-01-20T00:22:29.921Z,1020.10
2017-01-20T00:22:51.624Z,1020.03
2017-01-20T00:23:18.102Z,1020.04
2017-01-20T00:23:39.904Z,1019.98
2017-01-20T00:24:01.624Z,1020.13
2017-01-20T00:24:28.140Z,1020.09
2017-01-20T00:24:49.938Z,1020.01
2017-01-20T00:25:11.630Z,1020.10
2017-01-20T00:25:38.114Z,1020.02
2017-01-20T00:25:59.874Z,1020.00
2017-01-20T00:26:52.827Z,1020.08
2017-01-20T00:27:14.622Z,1020.04
2017-01-20T00:27:36.377Z,1020.11
2017-01-20T00:27:58.090Z,1020.11
2017-01-20T00:28:51.147Z,1020.03
2017-01-20T00:29:17.683Z,1020.11
2017-01-20T00:29:39.330Z,1020.06
2017-01-20T00:30:01.131Z,1020.08
2017-01-20T00:30:22.842Z,1020.12
2017-01-20T00:30:44.580Z,1020.08
2017-01-20T00:31:06.297Z,1020.08
2017-01-20T00:31:28.101Z,1020.10
2017-01-20T00:31:49.802Z,1020.05
2017-01-20T00:32:14.322Z,1020.03
2017-01-20T00:32:36.050Z,1020.11
2017-01-20T00:32:57.855Z,1020.03
2017-01-20T00:33:24.381Z,1020.02
2017-01-20T00:33:46.086Z,1020.07
2017-01-20T00:34:12.563Z,1020.03
2017-01-20T00:34:34.368Z,1019.96
2017-01-20T00:35:00.913Z,1020.03
2017-01-20T00:35:22.598Z,1020.09
2017-01-20T00:35:49.216Z,1019.97
2017-01-20T00:36:42.124Z,1020.02
2017-01-20T00:37:35.154Z,1020.07
2017-01-20T00:37:56.892Z,1020.02
2017-01-20T00:38:23.426Z,1020.00
2017-01-20T00:38:45.189Z,1020.04
2017-01-20T00:39:06.945Z,1020.03
2017-01-20T00:40:00.003Z,1019.96
2017-01-20T00:40:52.973Z,1019.87
2017-01-20T00:41:14.771Z,1019.97
2017-01-20T00:42:07.774Z,1019.91
2017-01-20T00:43:00.858Z,1019.93
2017-01-20T00:43:27.351Z,1019.90
2017-01-20T00:43:49.128Z,1019.84
2017-01-20T00:44:52.423Z,1019.91
2017-01-20T00:45:14.146Z,1019.90
2017-01-20T00:46:07.202Z,1019.97
2017-01-20T00:46:28.915Z,1019.92
2017-01-20T00:46:55.426Z,1019.93
2017-01-20T00:47:17.205Z,1019.84
2017-01-20T00:47:38.926Z,1019.90
2017-01-20T00:48:05.468Z,1019.91
2017-01-20T00:48:27.203Z,1019.89
2017-01-20T00:48:53.733Z,1019.93
2017-01-20T00:49:15.490Z,1019.94
2017-01-20T00:49:41.961Z,1019.94
2017-01-20T00:50:03.772Z,1019.97
2017-01-20T00:50:25.513Z,1019.92
2017-01-20T00:50:52.004Z,1019.92
2017-01-20T00:51:13.803Z,1019.90
2017-01-20T00:51:35.525Z,1019.86
2017-01-20T00:52:02.055Z,1019.85
2017-01-20T00:52:23.777Z,1019.91
2017-01-20T00:52:50.258Z,1019.83
2017-01-20T00:53:11.963Z,1019.92
2017-01-20T00:53:38.440Z,1019.92
2017-01-20T00:54:00.227Z,1019.89
2017-01-20T00:54:26.715Z,1019.87
2017-01-20T00:54:48.416Z,1019.82
2017-01-20T00:55:14.927Z,1019.96
2017-01-20T00:55:36.717Z,1019.93
2017-01-20T00:55:58.430Z,1019.89
2017-01-20T00:56:24.927Z,1019.90
2017-01-20T00:56:46.748Z,1019.93
2017-01-20T00:57:39.784Z,1019.92
2017-01-20T00:58:49.977Z,1019.96
2017-01-20T00:59:11.826Z,1020.02
2017-01-20T00:59:38.303Z,1019.95
2017-01-20T01:00:00.037Z,1019.92
2017-01-20T01:00:21.830Z,1019.88
2017-01-20T01:00:48.324Z,1019.89
2017-01-20T01:01:10.022Z,1019.86
2017-01-20T01:01:31.730Z,1019.95
2017-01-20T01:01:58.210Z,1019.84
2017-01-20T01:02:19.903Z,1019.91
2017-01-20T01:02:41.602Z,1019.91
2017-01-20T01:03:03.318Z,1019.94
2017-01-20T01:03:25.015Z,1019.97
2017-01-20T01:03:46.709Z,1019.82
2017-01-20T01:04:13.189Z,1019.84
2017-01-20T01:04:34.889Z,1019.84
2017-01-20T01:04:56.597Z,1019.89
2017-01-20T01:05:18.309Z,1019.75
2017-01-20T01:05:40.018Z,1019.83
2017-01-20T01:06:01.806Z,1019.84
2017-01-20T01:06:23.513Z,1019.83
2017-01-20T01:06:45.204Z,1019.79
2017-01-20T01:07:06.898Z,1019.88
2017-01-20T01:07:28.606Z,1019.82
2017-01-20T01:07:50.301Z,1019.87
2017-01-20T01:08:12.008Z,1019.79
2017-01-20T01:08:33.720Z,1019.72
2017-01-20T01:09:00.197Z,1019.72
2017-01-20T01:09:21.914Z,1019.74
2017-01-20T01:09:48.413Z,1019.70
2017-01-20T01:10:10.109Z,1019.62
2017-01-20T01:10:31.801Z,1019.72
2017-01-20T01:11:24.761Z,1019.82
2017-01-20T01:12:27.842Z,1019.74
2017-01-20T01:12:49.557Z,1019.77
2017-01-20T01:13:11.253Z,1019.75
2017-01-20T01:13:32.974Z,1019.75
2017-01-20T01:13:54.660Z,1019.75
2017-01-20T01:14:16.353Z,1019.80
2017-01-20T01:14:38.055Z,1019.72
2017-01-20T01:14:59.758Z,1019.79
2017-01-20T01:15:21.465Z,1019.76
2017-01-20T01:15:47.926Z,1019.82
2017-01-20T01:16:09.623Z,1019.85
2017-01-20T01:16:36.093Z,1019.74
2017-01-20T01:16:57.830Z,1019.70
2017-01-20T01:17:22.308Z,1019.76
2017-01-20T01:17:44.007Z,1019.74
2017-01-20T01:18:10.481Z,1019.76
2017-01-20T01:19:12.981Z,1019.76
2017-01-20T01:19:34.676Z,1019.74
2017-01-20T01:19:56.372Z,1019.84
2017-01-20T01:20:18.080Z,1019.87
2017-01-20T01:20:39.773Z,1019.85
2017-01-20T01:21:01.472Z,1019.76
2017-01-20T01:21:27.953Z,1019.91
2017-01-20T01:21:49.650Z,1019.83
2017-01-20T01:22:11.395Z,1019.72
2017-01-20T01:22:33.102Z,1019.84
2017-01-20T01:22:54.799Z,1019.88
2017-01-20T01:23:21.284Z,1019.90
2017-01-20T01:23:42.978Z,1019.89
2017-01-20T01:24:35.923Z,1019.83
2017-01-20T01:25:02.406Z,1019.92
2017-01-20T01:25:24.121Z,1019.94
2017-01-20T01:25:45.820Z,1019.95
2017-01-20T01:26:07.525Z,1019.82
2017-01-20T01:26:29.225Z,1019.84
2017-01-20T01:26:50.924Z,1019.87
2017-01-20T01:27:12.653Z,1019.98
2017-01-20T01:27:34.345Z,1019.95
2017-01-20T01:27:56.050Z,1019.83
2017-01-20T01:28:17.763Z,1019.88
2017-01-20T01:28:39.457Z,1019.79
2017-01-20T01:29:05.948Z,1019.86
2017-01-20T01:29:27.655Z,1019.83
2017-01-20T01:29:52.175Z,1019.92
2017-01-20T01:30:13.888Z,1019.70
2017-01-20T01:30:40.351Z,1019.80
2017-01-20T01:31:02.045Z,1019.77
2017-01-20T01:31:23.755Z,1019.90
2017-01-20T01:31:50.228Z,1019.85
2017-01-20T01:32:16.710Z,1019.87
2017-01-20T01:32:38.417Z,1019.87
2017-01-20T01:35:26.125Z,1019.85
2017-01-20T01:35:47.824Z,1019.85
2017-01-20T01:36:09.536Z,1019.84
2017-01-20T01:36:31.264Z,1019.93
2017-01-20T01:36:52.967Z,1019.83
2017-01-20T01:37:14.660Z,1020.03
2017-01-20T01:37:36.368Z,1019.91
2017-01-20T01:37:58.096Z,1019.91
2017-01-20T01:38:19.799Z,1019.91
2017-01-20T01:38:41.503Z,1020.03
2017-01-20T01:40:24.839Z,1019.88
2017-01-20T01:40:46.541Z,1019.99
2017-01-20T01:41:08.266Z,1019.92
2017-01-20T01:42:06.583Z,1019.91
2017-01-20T01:42:28.288Z,1019.95
2017-01-20T01:43:31.380Z,1019.88
2017-01-20T01:43:53.089Z,1019.90
2017-01-20T01:44:14.788Z,1019.82
2017-01-20T01:44:36.528Z,1019.93
2017-01-20T01:44:58.234Z,1019.88
2017-01-20T01:45:19.950Z,1019.91
2017-01-20T01:46:12.918Z,1019.92
2017-01-20T01:46:39.393Z,1019.97
2017-01-20T01:47:01.092Z,1019.88
2017-01-20T01:47:27.565Z,1019.92
2017-01-20T01:47:49.274Z,1019.91
2017-01-20T01:48:11.095Z,1019.91
2017-01-20T01:48:32.807Z,1019.87
2017-01-20T01:48:54.509Z,1019.89
2017-01-20T01:49:16.228Z,1019.85
2017-01-20T01:49:37.972Z,1019.89
2017-01-20T01:49:59.687Z,1019.91
2017-01-20T01:50:21.389Z,1019.82
2017-01-20T01:51:14.356Z,1019.82
2017-01-20T01:51:38.077Z,1019.91
2017-01-20T01:51:59.780Z,1019.90
2017-01-20T01:52:21.509Z,1019.78
2017-01-20T01:52:48.001Z,1019.85
2017-01-20T01:53:09.696Z,1019.83
2017-01-20T01:54:08.013Z,1019.79
2017-01-20T01:54:29.728Z,1019.81
2017-01-20T01:55:22.720Z,1019.92
2017-01-20T01:55:44.436Z,1019.88
2017-01-20T01:56:37.399Z,1019.87
2017-01-20T01:57:03.888Z,1019.95
2017-01-20T01:57:25.594Z,1019.86
2017-01-20T01:57:47.296Z,1019.91
2017-01-20T01:58:09.007Z,1019.91
2017-01-20T01:58:30.704Z,1019.91
2017-01-20T01:58:52.418Z,1019.89
2017-01-20T01:59:45.376Z,1019.92
2017-01-20T02:00:07.072Z,1019.97
2017-01-20T02:00:33.555Z,1019.77
2017-01-20T02:00:55.277Z,1019.79
2017-01-20T02:01:16.986Z,1019.83
2017-01-20T02:01:38.711Z,1019.82
2017-01-20T02:02:00.423Z,1019.85
2017-01-20T02:02:53.383Z,1019.87
2017-01-20T02:03:46.372Z,1019.93
2017-01-20T02:04:08.173Z,1019.90
2017-01-20T02:04:34.646Z,1019.97
2017-01-20T02:04:56.346Z,1019.87
2017-01-20T02:08:43.111Z,1019.96
2017-01-20T02:09:04.826Z,1019.91
2017-01-20T02:09:26.532Z,1019.83
2017-01-20T02:09:53.025Z,1019.86
2017-01-20T02:10:14.714Z,1019.80
2017-01-20T02:11:17.806Z,1019.79
2017-01-20T02:11:39.533Z,1019.92
2017-01-20T02:12:37.278Z,1019.89
2017-01-20T02:13:40.350Z,1019.81
2017-01-20T02:14:02.090Z,1019.79
2017-01-20T02:14:55.079Z,1019.75
2017-01-20T02:16:02.381Z,1019.81
2017-01-20T02:16:24.100Z,1019.83
2017-01-20T02:17:31.434Z,1019.88
2017-01-20T02:17:53.150Z,1019.82
2017-01-20T02:18:51.476Z,1019.87
2017-01-20T02:19:13.185Z,1019.82
2017-01-20T02:19:39.659Z,1019.83
2017-01-20T02:20:01.364Z,1019.90
2017-01-20T02:20:54.343Z,1019.83
2017-01-20T02:21:16.060Z,1019.87
2017-01-20T02:21:42.542Z,1019.95
2017-01-20T02:22:04.247Z,1019.84
2017-01-20T02:23:11.547Z,1019.94
2017-01-20T02:23:33.265Z,1019.77
2017-01-20T02:23:54.984Z,1019.88
2017-01-20T02:24:47.988Z,1019.90
2017-01-20T02:26:21.851Z,1019.82
2017-01-20T02:27:55.652Z,1020.02
2017-01-20T02:28:17.399Z,1019.95
2017-01-20T02:28:43.879Z,1019.84
2017-01-20T02:29:05.633Z,1019.80
2017-01-20T02:29:32.107Z,1019.76
2017-01-20T02:29:53.819Z,1019.82
2017-01-20T02:30:15.550Z,1019.96
2017-01-20T02:31:08.545Z,1020.01
2017-01-20T02:32:01.556Z,1019.94
2017-01-20T02:33:35.470Z,1020.01
2017-01-20T02:33:57.195Z,1019.94
2017-01-20T02:34:50.161Z,1020.00
2017-01-20T02:35:52.693Z,1019.98
2017-01-20T02:36:19.182Z,1019.89
2017-01-20T02:36:40.917Z,1019.86
2017-01-20T02:37:33.924Z,1019.90
2017-01-20T02:37:55.662Z,1019.97
2017-01-20T02:38:22.145Z,1019.99
2017-01-20T02:38:43.880Z,1019.96
2017-01-20T02:39:10.366Z,1019.91
2017-01-20T02:39:32.122Z,1019.90
2017-01-20T02:39:58.638Z,1019.97
2017-01-20T02:40:20.420Z,1019.84
2017-01-20T02:40:46.913Z,1019.84
2017-01-20T02:41:08.631Z,1019.86
2017-01-20T02:41:35.150Z,1019.94
2017-01-20T02:41:56.855Z,1019.89
2017-01-20T02:42:49.933Z,1019.75
2017-01-20T02:43:42.935Z,1019.88
2017-01-20T02:44:50.218Z,1019.71
2017-01-20T02:45:11.966Z,1019.72
2017-01-20T02:46:45.783Z,1019.78
2017-01-20T02:48:19.581Z,1019.88
2017-01-20T02:49:12.585Z,1019.68
2017-01-20T02:49:39.072Z,1019.68
2017-01-20T02:50:00.807Z,1019.72
2017-01-20T02:51:03.878Z,1019.73
2017-01-20T02:51:25.622Z,1019.78
2017-01-20T02:51:47.350Z,1019.79
2017-01-20T02:52:13.891Z,1019.79
2017-01-20T02:52:35.632Z,1019.85
2017-01-20T02:53:28.624Z,1019.84
2017-01-20T02:54:21.645Z,1019.83
2017-01-20T02:55:14.643Z,1019.81
2017-01-20T02:55:36.358Z,1019.84
2017-01-20T02:57:10.140Z,1019.77
2017-01-20T02:57:31.869Z,1019.79
2017-01-20T02:58:24.838Z,1019.77
2017-01-20T02:58:46.579Z,1019.89
2017-01-20T02:59:13.072Z,1019.89
2017-01-20T02:59:34.774Z,1019.86
2017-01-20T02:59:56.521Z,1019.84
2017-01-20T03:00:23.008Z,1019.77
2017-01-20T03:00:44.784Z,1019.81
2017-01-20T03:01:52.087Z,1019.88
2017-01-20T03:02:13.817Z,1019.89
2017-01-20T03:03:23.859Z,1019.87
2017-01-20T03:03:45.558Z,1019.79
2017-01-20T03:04:48.076Z,1019.87
2017-01-20T03:05:14.560Z,1019.70
2017-01-20T03:05:39.190Z,1019.90
2017-01-20T03:06:05.664Z,1019.85
2017-01-20T03:08:33.792Z,1019.75
2017-01-20T03:08:55.495Z,1019.78
2017-01-20T03:09:53.907Z,1019.79
2017-01-20T03:10:15.683Z,1019.79
2017-01-20T03:11:18.842Z,1019.70
2017-01-20T03:11:40.579Z,1019.82
2017-01-20T03:12:07.066Z,1019.79
2017-01-20T03:12:28.822Z,1019.78
2017-01-20T03:13:27.146Z,1019.69
2017-01-20T03:13:48.867Z,1019.70
2017-01-20T03:14:10.579Z,1019.85
2017-01-20T03:15:13.741Z,1019.82
2017-01-20T03:15:35.478Z,1019.95
2017-01-20T03:16:38.615Z,1019.83
2017-01-20T03:17:00.333Z,1019.86
2017-01-20T03:17:58.691Z,1019.76
2017-01-20T03:18:20.416Z,1019.81
2017-01-20T03:19:23.520Z,1019.76
2017-01-20T03:19:45.225Z,1019.68
2017-01-20T03:20:38.195Z,1019.79
2017-01-20T03:20:59.914Z,1019.82
2017-01-20T03:22:03.030Z,1019.77
2017-01-20T03:22:24.768Z,1019.89
2017-01-20T03:23:17.785Z,1019.77
2017-01-20T03:23:39.527Z,1019.78
2017-01-20T03:24:39.504Z,1019.71
2017-01-20T03:25:01.222Z,1019.79
2017-01-20T03:25:59.542Z,1019.84
2017-01-20T03:26:21.248Z,1019.70
2017-01-20T03:26:47.728Z,1019.79
2017-01-20T03:27:09.437Z,1019.81
2017-01-20T03:27:31.173Z,1019.76
2017-01-20T03:27:52.883Z,1019.76
2017-01-20T03:28:14.604Z,1019.76
2017-01-20T03:28:36.313Z,1019.74
2017-01-20T03:28:58.022Z,1019.66
2017-01-20T03:29:50.973Z,1019.87
2017-01-20T03:30:12.678Z,1019.91
2017-01-20T03:30:39.161Z,1019.73
2017-01-20T03:31:00.874Z,1019.76
2017-01-20T03:31:22.582Z,1019.81
2017-01-20T03:31:44.291Z,1019.79
2017-01-20T03:32:05.994Z,1019.80
2017-01-20T03:32:27.692Z,1019.85
2017-01-20T03:32:54.195Z,1019.84
2017-01-20T03:33:15.898Z,1019.82
2017-01-20T03:34:08.867Z,1019.80
2017-01-20T03:34:30.573Z,1019.79
2017-01-20T03:34:52.282Z,1019.81
2017-01-20T03:35:13.991Z,1019.81
2017-01-20T03:35:40.471Z,1019.72
2017-01-20T03:36:02.170Z,1019.71
2017-01-20T03:36:28.660Z,1019.74
2017-01-20T03:36:50.358Z,1019.70
2017-01-20T03:37:12.064Z,1019.73
2017-01-20T03:37:33.773Z,1019.83
2017-01-20T03:37:55.495Z,1019.80
2017-01-20T03:38:48.478Z,1019.72
2017-01-20T03:39:14.964Z,1019.75
2017-01-20T03:39:36.666Z,1019.83
2017-01-20T03:39:58.375Z,1019.88
2017-01-20T03:40:24.868Z,1019.83
2017-01-20T03:40:46.577Z,1019.83
2017-01-20T03:41:08.282Z,1019.88
2017-01-20T03:41:34.768Z,1019.79
2017-01-20T03:41:56.477Z,1019.77
2017-01-20T03:42:18.183Z,1019.83
2017-01-20T03:42:39.886Z,1019.81
2017-01-20T03:43:01.591Z,1019.83
2017-01-20T03:43:23.303Z,1019.79
2017-01-20T03:43:45.015Z,1019.85
2017-01-20T03:44:06.736Z,1019.81
2017-01-20T03:44:28.458Z,1019.90
2017-01-20T03:45:26.775Z,1019.74
2017-01-20T03:45:48.487Z,1019.76
2017-01-20T03:46:10.207Z,1019.73
2017-01-20T03:47:08.494Z,1019.81
2017-01-20T03:47:30.193Z,1019.86
2017-01-20T03:47:51.898Z,1019.86
2017-01-20T03:48:13.607Z,1019.85
2017-01-20T03:48:35.316Z,1019.77
2017-01-20T03:49:01.802Z,1019.81
2017-01-20T03:49:23.505Z,1019.85
2017-01-20T03:50:16.462Z,1019.87
2017-01-20T03:50:38.167Z,1019.76
2017-01-20T03:51:04.660Z,1019.78
2017-01-20T03:51:26.365Z,1019.87
2017-01-20T03:51:52.843Z,1019.74
2017-01-20T03:52:14.548Z,1019.78
2017-01-20T03:52:36.257Z,1019.89
2017-01-20T03:53:02.740Z,1019.76
2017-01-20T03:53:24.449Z,1019.80
2017-01-20T03:53:46.161Z,1019.89
2017-01-20T03:54:12.640Z,1019.84
2017-01-20T03:54:34.363Z,1019.89
2017-01-20T03:55:00.846Z,1019.89
2017-01-20T03:55:22.546Z,1019.96
2017-01-20T03:55:44.241Z,1019.88
2017-01-20T03:56:05.950Z,1019.87
2017-01-20T03:56:27.652Z,1019.89
2017-01-20T03:56:54.139Z,1019.72
2017-01-20T03:57:15.842Z,1019.90
2017-01-20T03:57:42.328Z,1019.93
2017-01-20T03:58:04.030Z,1019.86
2017-01-20T03:58:25.739Z,1019.85
2017-01-20T03:58:47.451Z,1019.83
2017-01-20T03:59:09.153Z,1019.86
2017-01-20T03:59:30.853Z,1019.90
2017-01-20T03:59:57.355Z,1019.80
2017-01-20T04:00:19.054Z,1019.87
2017-01-20T04:00:40.785Z,1019.87
2017-01-20T04:01:02.494Z,1019.85
2017-01-20T04:01:24.192Z,1019.84
2017-01-20T04:01:45.912Z,1019.86
2017-01-20T04:02:07.624Z,1019.88
2017-01-20T04:02:29.326Z,1019.85
2017-01-20T04:02:51.038Z,1019.88
2017-01-20T04:03:12.754Z,1019.88
2017-01-20T04:03:34.456Z,1019.92
2017-01-20T04:03:56.161Z,1019.85
2017-01-20T04:04:54.459Z,1019.84
2017-01-20T04:05:16.158Z,1019.92
2017-01-20T04:05:42.677Z,1019.92
2017-01-20T04:06:04.385Z,1020.01
2017-01-20T04:06:57.342Z,1019.83
2017-01-20T04:07:19.041Z,1019.86
2017-01-20T04:07:43.345Z,1019.95
2017-01-20T04:08:36.311Z,1019.85
2017-01-20T04:08:58.011Z,1019.88
2017-01-20T04:09:19.726Z,1019.90
2017-01-20T04:09:41.421Z,1019.98
2017-01-20T04:10:03.131Z,1019.89
2017-01-20T04:10:24.843Z,1019.87
2017-01-20T04:14:41.837Z,1019.79
2017-01-20T04:15:03.543Z,1019.79
2017-01-20T04:16:01.834Z,1019.82
2017-01-20T04:16:23.540Z,1019.83
2017-01-20T04:16:45.248Z,1019.78
2017-01-20T04:17:06.951Z,1019.77
2017-01-20T04:17:28.653Z,1019.71
2017-01-20T04:18:24.557Z,1019.73
2017-01-20T04:18:46.266Z,1019.76
2017-01-20T04:19:07.966Z,1019.75
2017-01-20T04:19:29.706Z,1019.78
2017-01-20T04:19:51.501Z,1019.76
2017-01-20T04:20:13.194Z,1019.72
2017-01-20T04:21:06.157Z,1019.76
2017-01-20T04:21:27.869Z,1019.75
2017-01-20T04:21:54.349Z,1019.59
2017-01-20T04:22:16.061Z,1019.73
2017-01-20T04:22:37.782Z,1019.76
2017-01-20T04:22:59.475Z,1019.82
2017-01-20T04:23:21.191Z,1019.78
2017-01-20T04:23:42.883Z,1019.75
2017-01-20T04:24:09.363Z,1019.70
2017-01-20T04:24:31.097Z,1019.77
2017-01-20T04:24:52.812Z,1019.81
2017-01-20T04:25:14.515Z,1019.77
2017-01-20T04:25:36.217Z,1019.80
2017-01-20T04:25:57.930Z,1019.73
2017-01-20T04:26:50.899Z,1019.73
2017-01-20T04:27:12.617Z,1019.79
2017-01-20T04:27:34.319Z,1019.74
2017-01-20T04:27:56.017Z,1019.54
2017-01-20T04:28:17.724Z,1019.75
2017-01-20T04:28:39.430Z,1019.79
2017-01-20T04:29:01.138Z,1019.67
2017-01-20T04:29:22.844Z,1019.69
2017-01-20T04:29:44.578Z,1019.68
2017-01-20T04:30:06.277Z,1019.58
2017-01-20T04:30:27.989Z,1019.74
2017-01-20T04:30:49.704Z,1019.75
2017-01-20T04:31:11.411Z,1019.72
2017-01-20T04:31:33.109Z,1019.76
2017-01-20T04:32:26.072Z,1019.78
2017-01-20T04:33:19.067Z,1019.65
2017-01-20T04:33:40.779Z,1019.65
2017-01-20T04:34:07.256Z,1019.77
2017-01-20T04:34:28.968Z,1019.77
2017-01-20T04:36:32.517Z,1019.69
2017-01-20T04:36:54.212Z,1019.67
2017-01-20T04:37:15.928Z,1019.61
2017-01-20T04:37:43.432Z,1019.68
2017-01-20T04:38:05.153Z,1019.72
2017-01-20T04:38:58.152Z,1019.71
2017-01-20T04:39:19.870Z,1019.84
2017-01-20T04:40:12.877Z,1019.82
2017-01-20T04:40:34.612Z,1019.84
2017-01-20T04:40:56.346Z,1019.82
2017-01-20T04:41:18.062Z,1019.74
2017-01-20T04:41:39.761Z,1019.73
2017-01-20T04:42:06.235Z,1019.73
2017-01-20T04:42:27.937Z,1019.78
2017-01-20T04:42:54.420Z,1019.73
2017-01-20T04:43:16.139Z,1019.84
2017-01-20T04:43:42.622Z,1019.76
2017-01-20T04:44:04.353Z,1019.68
2017-01-20T04:44:26.081Z,1019.71
2017-01-20T04:44:52.561Z,1019.74
2017-01-20T04:45:14.276Z,1019.77
2017-01-20T04:45:36.020Z,1019.70
2017-01-20T04:45:57.739Z,1019.93
2017-01-20T04:46:19.438Z,1019.69
2017-01-20T04:46:41.147Z,1019.75
2017-01-20T04:47:07.665Z,1019.77
2017-01-20T04:47:34.139Z,1019.81
2017-01-20T04:48:00.632Z,1019.81
2017-01-20T04:48:22.341Z,1019.79
2017-01-20T04:48:44.078Z,1019.77
2017-01-20T04:49:10.558Z,1019.78
2017-01-20T04:49:32.299Z,1019.70
2017-01-20T04:49:58.804Z,1019.71
2017-01-20T04:50:20.513Z,1019.82
2017-01-20T04:51:13.483Z,1019.84
2017-01-20T04:52:06.453Z,1019.73
2017-01-20T04:52:32.994Z,1019.65
2017-01-20T04:52:54.699Z,1019.77
2017-01-20T04:53:16.411Z,1019.77
2017-01-20T04:53:42.914Z,1019.86
2017-01-20T04:54:04.677Z,1019.73
2017-01-20T04:54:57.669Z,1019.80
2017-01-20T04:55:50.658Z,1019.74
2017-01-20T04:56:12.380Z,1019.81
2017-01-20T04:56:38.869Z,1019.77
2017-01-20T04:57:00.575Z,1019.73
2017-01-20T04:57:22.290Z,1019.73
2017-01-20T04:57:48.783Z,1019.72
2017-01-20T04:58:10.501Z,1019.77
2017-01-20T04:58:32.201Z,1019.81
2017-01-20T04:58:58.684Z,1019.69
2017-01-20T04:59:51.679Z,1019.74
2017-01-20T05:00:13.397Z,1019.71
2017-01-20T05:00:39.913Z,1019.76
2017-01-20T05:01:01.633Z,1019.71
2017-01-20T05:01:23.336Z,1019.84
2017-01-20T05:01:45.049Z,1019.72
2017-01-20T05:02:06.776Z,1019.66
2017-01-20T05:02:28.492Z,1019.84
2017-01-20T05:02:54.972Z,1019.80
2017-01-20T05:03:16.700Z,1019.66
2017-01-20T05:03:38.569Z,1019.73
2017-01-20T05:04:00.242Z,1019.65
2017-01-20T05:04:21.954Z,1019.77
2017-01-20T05:04:43.686Z,1019.71
2017-01-20T05:05:10.162Z,1019.75
2017-01-20T05:05:31.878Z,1019.73
2017-01-20T05:05:54.817Z,1019.68
2017-01-20T05:06:21.298Z,1019.67
2017-01-20T05:06:43.020Z,1019.61
2017-01-20T05:07:04.739Z,1019.75
2017-01-20T05:07:31.222Z,1019.68
2017-01-20T05:07:52.937Z,1019.64
2017-01-20T05:09:10.928Z,1019.88
2017-01-20T05:10:17.488Z,1019.71
2017-01-20T05:10:39.286Z,1019.74
2017-01-20T05:11:01.001Z,1019.66
2017-01-20T05:12:08.342Z,1019.63
2017-01-20T05:12:30.103Z,1019.60
2017-01-20T05:12:56.599Z,1019.47
2017-01-20T05:13:18.346Z,1019.67
2017-01-20T05:14:20.883Z,1019.66
2017-01-20T05:14:42.640Z,1019.51
2017-01-20T05:15:04.354Z,1019.50
2017-01-20T05:15:30.823Z,1019.60
2017-01-20T05:15:52.650Z,1019.56
2017-01-20T05:16:19.143Z,1019.53
2017-01-20T05:16:43.079Z,1019.57
2017-01-20T05:17:36.080Z,1019.56
2017-01-20T05:17:57.792Z,1019.55
2017-01-20T05:18:24.283Z,1019.59
2017-01-20T05:18:46.036Z,1019.64
2017-01-20T05:19:07.751Z,1019.59
2017-01-20T05:19:29.559Z,1019.59
2017-01-20T05:19:51.300Z,1019.52
2017-01-20T05:20:13.021Z,1019.54
2017-01-20T05:21:46.801Z,1019.62
2017-01-20T05:22:49.959Z,1019.59
2017-01-20T05:23:11.690Z,1019.57
2017-01-20T05:24:14.228Z,1019.55
2017-01-20T05:24:35.933Z,1019.56
2017-01-20T05:25:28.939Z,1019.63
2017-01-20T05:27:02.721Z,1019.70
2017-01-20T05:28:36.507Z,1019.72
2017-01-20T05:29:43.809Z,1019.69
2017-01-20T05:30:05.509Z,1019.65
2017-01-20T05:31:03.854Z,1019.67
2017-01-20T05:31:25.563Z,1019.65
2017-01-20T05:31:47.300Z,1019.59
2017-01-20T05:32:09.022Z,1019.65
2017-01-20T05:32:30.725Z,1019.65
2017-01-20T05:33:23.710Z,1019.70
2017-01-20T05:33:45.416Z,1019.75
2017-01-20T05:34:11.909Z,1019.72
2017-01-20T05:34:33.640Z,1019.64
2017-01-20T05:34:55.352Z,1019.74
2017-01-20T05:35:17.061Z,1019.75
2017-01-20T05:35:38.767Z,1019.68
2017-01-20T05:36:00.479Z,1019.73
2017-01-20T05:36:53.464Z,1019.71
2017-01-20T05:37:15.189Z,1019.67
2017-01-20T05:37:41.701Z,1019.74
2017-01-20T05:38:03.461Z,1019.84
2017-01-20T05:38:25.209Z,1019.67
2017-01-20T05:38:51.724Z,1019.76
2017-01-20T05:39:13.455Z,1019.64
2017-01-20T05:40:16.571Z,1019.78
2017-01-20T05:40:38.290Z,1019.77
2017-01-20T05:41:02.057Z,1019.68
2017-01-20T05:41:23.775Z,1019.68
2017-01-20T05:41:50.309Z,1019.70
2017-01-20T05:42:43.311Z,1019.71
2017-01-20T05:43:05.026Z,1019.67
2017-01-20T05:43:26.735Z,1019.77
2017-01-20T05:43:48.482Z,1019.65
2017-01-20T05:44:14.979Z,1019.69
2017-01-20T05:44:36.704Z,1019.65
2017-01-20T05:45:03.199Z,1019.73
2017-01-20T05:45:24.905Z,1019.70
2017-01-20T05:46:28.022Z,1019.73
2017-01-20T05:46:49.734Z,1019.60
2017-01-20T05:47:11.452Z,1019.82
2017-01-20T05:47:37.942Z,1019.71
2017-01-20T05:47:59.648Z,1019.70
2017-01-20T05:48:26.131Z,1019.76
2017-01-20T05:48:47.859Z,1019.75
2017-01-20T05:49:36.102Z,1019.78
2017-01-20T05:50:02.575Z,1019.73
2017-01-20T05:50:24.271Z,1019.69
2017-01-20T05:50:45.974Z,1019.73
2017-01-20T05:51:12.569Z,1019.61
2017-01-20T05:51:34.278Z,1019.56
2017-01-20T05:51:55.993Z,1019.77
2017-01-20T05:52:22.496Z,1019.76
2017-01-20T05:52:44.308Z,1019.69
2017-01-20T05:53:06.016Z,1019.68
2017-01-20T05:53:32.489Z,1019.73
2017-01-20T05:53:54.204Z,1019.67
2017-01-20T05:54:16.089Z,1019.72
2017-01-20T05:54:42.566Z,1019.73
2017-01-20T05:55:04.276Z,1019.65
2017-01-20T05:55:25.987Z,1019.66
2017-01-20T05:55:52.467Z,1019.76
2017-01-20T05:56:14.358Z,1019.67
2017-01-20T05:56:36.064Z,1019.67
2017-01-20T05:57:02.640Z,1019.64
2017-01-20T05:57:24.368Z,1019.71
2017-01-20T05:57:50.853Z,1019.67
2017-01-20T05:58:12.659Z,1019.72
2017-01-20T05:58:34.492Z,1019.72
2017-01-20T05:59:01.001Z,1019.86
2017-01-20T05:59:22.944Z,1019.72
2017-01-20T05:59:44.685Z,1019.67
2017-01-20T06:00:37.847Z,1019.63
2017-01-20T06:00:59.596Z,1019.60
2017-01-20T06:01:26.090Z,1019.63
2017-01-20T06:01:47.798Z,1019.67
2017-01-20T06:02:40.967Z,1019.71
2017-01-20T06:03:02.675Z,1019.64
2017-01-20T06:03:29.172Z,1019.74
2017-01-20T06:03:50.877Z,1019.81
2017-01-20T06:04:12.573Z,1019.69
2017-01-20T06:04:34.288Z,1019.70
2017-01-20T06:04:55.997Z,1019.74
2017-01-20T06:05:23.041Z,1019.66
2017-01-20T06:05:44.762Z,1019.63
2017-01-20T06:06:11.866Z,1019.57
2017-01-20T06:06:36.285Z,1019.69
2017-01-20T06:07:02.765Z,1019.67
2017-01-20T06:07:24.474Z,1019.62
2017-01-20T06:07:46.170Z,1019.64
2017-01-20T06:08:07.878Z,1019.70